Monday, October 20, 2014
04:34 UTC
  |  Log In   |  Register Free
Airport Search:

Talladega Municipal Airport
(KASN)

Talladega Municipal Airport Diagram
No Airport Diagram Available

FAA data valid effective September 18, 2014 - November 13, 2014 (unless otherwise noted).

 
 
 
 
 
 
 
 
 
 
 
 
 
 

Current Aviation Weather for Talladega Municipal Airport (KASN)

The most recent METAR observation for KASN was updated at: 0407
METAR Summary (Translated METAR)
KASN
200315Z AUTO 00000KT 10SM CLR 11/10 A3011 RMK AO2 T01130101
KANB
200253Z AUTO 08003KT 10SM CLR 12/11 A3011 RMK AO2 SLP197 T01170106 51005
(9.7 nm NE from KASN)
KGAD
200315Z 00000KT 10SM CLR 09/07 A3010 RMK AO1
(24.3 nm NW from KASN)
TAF Summary (Translated TAF)
KASN
(9.7 nm SW from KANB)
191724Z 1918/2018 VRB03KT P6SM SKC
KANB
191724Z 1918/2018 VRB03KT P6SM SKC
  Airport Weather Conditions for KASN

Current weather conditions are
not available for ASN


The nearest NOAA weather station
is at ANB, (9.7 nm NE from ASN)
  
 Current Weather at ANB
53° F
Fair
East winds at 3.5 mph
ANB NOAA Radar

Pressure: 30.11 in
Humidity: 93%
Wind: East at 3.5 MPH (3 KT)
Dew Point: 51.1°F
Visibility: 10.00 mi


Airport Weather Forecast for KASN

Translated METAR and TAF for KANB
Translated METAR for KANB (0429 UTC 20 October 2014)
found at http://aviationweather.gov/adds/metars/
 
METAR text: KANB 200253Z AUTO 08003KT 10SM CLR 12/11 A3011 RMK AO2 SLP197 T01170106 51005
Conditions at: KANB (ANNISTON , AL, US) observed 0253 UTC 20 October 2014
Temperature: 11.7°C (53°F)
Dewpoint: 10.6°C (51°F) [RH = 93%]
Pressure (altimeter): 30.11 inches Hg (1019.7 mb)
[Sea-level pressure: 1019.7 mb]
Winds: from the E (80 degrees) at 3 MPH (3 knots; 1.6 m/s)
Visibility: 10 or more miles (16+ km)
Ceiling: at least 12,000 feet AGL
Clouds: sky clear below 12,000 feet AGL
Weather: automated observation with no human augmentation;
there may or may not be significant weather present at this time
Translated TAF for KANB
Forecast for: KANB (ANNISTON , AL, US)
TAF Text: KANB 192320Z 2000/2024 00000KT P6SM SKC
Forecast period: 0000 UTC 20 October 2014 to 0000 UTC 21 October 2014
Forecast type: FROM: standard forecast or significant change
Winds: calm
Visibility: 6 or more miles (10+ km)
Clouds: clear skies
Weather: no significant weather forecast for this period

Find All Airport Services Find A Hotel Find A Rental Car Find A Golf Course Find A Restaurant $100 Hamburger



FBO's on the Field
FBO Company Facility Photos Services Transportation Aviation Fuel Prices: Prices include tax
Catering Weather Repair Courtesy Rental Type 100LL JetA JetA+ MOGAS 8087
 
Talladega Municipal

This FBO has not yet been rated
FS:Texaco
Last Updated: Sep-17
Login to update fuel prices
SS:
Contact Talladega MunicipalMore FBO Information
 
Add another FBO Facility Photos Catering Weather Repair Courtesy Rental Type 100LL JetA JetA+ MOGAS 8087
Services Transportation Aviation Fuel Prices: Prices include tax


model-print
model-print
model-print
model-print